createdAt,value
2023-03-27T00:01:22.240Z,2.00
2023-03-27T00:03:51.634Z,1.90
2023-03-27T00:06:20.319Z,1.90
2023-03-27T00:08:53.274Z,2.50
2023-03-27T00:11:21.882Z,2.07
2023-03-27T00:13:51.136Z,1.73
2023-03-27T00:16:25.128Z,1.90
2023-03-27T00:18:52.813Z,2.10
2023-03-27T00:21:20.740Z,2.20
2023-03-27T00:23:47.752Z,1.83
2023-03-27T00:26:15.439Z,2.63
2023-03-27T00:28:42.348Z,2.43
2023-03-27T00:31:14.583Z,1.73
2023-03-27T00:33:42.144Z,1.93
2023-03-27T00:36:10.426Z,1.77
2023-03-27T00:38:39.473Z,1.63
2023-03-27T00:41:07.228Z,2.27
2023-03-27T00:43:36.185Z,1.80
2023-03-27T00:46:38.708Z,2.23
2023-03-27T00:49:11.744Z,2.00
2023-03-27T00:51:42.105Z,3.33
2023-03-27T00:54:10.830Z,1.70
2023-03-27T00:56:38.704Z,2.17
2023-03-27T00:59:15.449Z,1.80
2023-03-27T01:01:45.035Z,2.47
2023-03-27T01:04:12.400Z,2.23
2023-03-27T01:06:42.045Z,2.00
2023-03-27T01:09:09.700Z,2.03
2023-03-27T01:11:58.345Z,1.83
2023-03-27T01:14:46.899Z,2.30
2023-03-27T01:17:43.247Z,2.27
2023-03-27T01:21:06.509Z,1.73
2023-03-27T01:24:11.451Z,2.03
2023-03-27T01:27:16.167Z,1.87
2023-03-27T01:30:13.377Z,2.20
2023-03-27T01:33:01.575Z,2.10
2023-03-27T01:36:04.785Z,2.27
2023-03-27T01:39:11.577Z,2.43
2023-03-27T01:41:57.522Z,2.13
2023-03-27T01:44:45.786Z,1.50
2023-03-27T01:47:46.383Z,2.63
2023-03-27T01:50:34.061Z,2.53
2023-03-27T01:53:10.596Z,1.73
2023-03-27T01:55:45.341Z,2.13
2023-03-27T01:58:18.065Z,1.80
2023-03-27T02:00:53.255Z,1.83
2023-03-27T02:03:51.657Z,2.07
2023-03-27T02:06:26.097Z,1.67
2023-03-27T02:09:15.874Z,1.63
2023-03-27T02:12:08.175Z,1.63
2023-03-27T02:14:48.176Z,1.90
2023-03-27T02:17:20.396Z,1.73
2023-03-27T02:20:11.335Z,2.00
2023-03-27T02:22:40.041Z,1.67
2023-03-27T02:25:32.497Z,1.83
2023-03-27T02:28:09.288Z,2.20
2023-03-27T02:31:05.588Z,1.97
2023-03-27T02:34:05.508Z,1.90
2023-03-27T02:37:07.739Z,2.03
2023-03-27T02:39:46.129Z,2.07
2023-03-27T02:42:26.419Z,1.53
2023-03-27T02:45:06.845Z,1.77
2023-03-27T02:47:45.443Z,1.97
2023-03-27T02:50:23.743Z,2.03
2023-03-27T02:52:57.875Z,2.10
2023-03-27T02:55:33.155Z,1.83
2023-03-27T02:58:22.028Z,2.17
2023-03-27T03:00:51.799Z,1.77
2023-03-27T03:03:53.836Z,2.00
2023-03-27T03:06:29.510Z,1.30
2023-03-27T03:09:05.786Z,1.60
2023-03-27T03:11:39.346Z,1.67
2023-03-27T03:14:06.284Z,1.80
2023-03-27T03:16:33.345Z,2.37
2023-03-27T03:19:00.103Z,1.50
2023-03-27T03:21:26.856Z,1.70
2023-03-27T03:23:57.896Z,2.07
2023-03-27T03:26:26.983Z,2.33
2023-03-27T03:29:00.035Z,1.70
2023-03-27T03:31:44.364Z,2.03
2023-03-27T03:34:18.466Z,2.13
2023-03-27T03:36:49.427Z,1.60
2023-03-27T03:39:17.421Z,1.57
2023-03-27T03:41:44.252Z,1.77
2023-03-27T03:44:11.018Z,2.03
2023-03-27T03:46:38.064Z,1.90
2023-03-27T03:49:05.002Z,1.63
2023-03-27T03:51:33.874Z,1.70
2023-03-27T03:54:01.565Z,2.13
2023-03-27T03:56:30.567Z,1.57
2023-03-27T03:58:57.912Z,1.93
2023-03-27T04:01:26.047Z,2.37
2023-03-27T04:03:52.983Z,1.70
2023-03-27T04:06:25.486Z,2.33
2023-03-27T04:08:53.386Z,2.67
2023-03-27T04:11:21.290Z,1.87
2023-03-27T04:13:48.104Z,1.97
2023-03-27T04:16:15.366Z,1.27
2023-03-27T04:18:42.537Z,2.10
2023-03-27T04:21:18.127Z,1.53
2023-03-27T04:23:48.115Z,2.90
2023-03-27T04:26:16.023Z,2.33
2023-03-27T04:28:43.420Z,2.40
2023-03-27T04:31:10.785Z,2.87
2023-03-27T04:33:46.112Z,2.60
2023-03-27T04:36:16.495Z,2.33
2023-03-27T04:38:43.272Z,2.73
2023-03-27T04:41:10.496Z,2.67
2023-03-27T04:43:39.932Z,2.40
2023-03-27T04:46:07.808Z,2.10
2023-03-27T04:48:38.798Z,1.77
2023-03-27T04:51:09.254Z,2.23
2023-03-27T04:53:37.687Z,2.00
2023-03-27T04:56:06.173Z,1.60
2023-03-27T05:01:02.263Z,1.83
2023-03-27T05:03:29.268Z,2.13
2023-03-27T05:05:56.108Z,1.50
2023-03-27T05:08:22.932Z,2.13
2023-03-27T05:10:49.770Z,2.07
2023-03-27T05:13:16.499Z,2.27
2023-03-27T05:15:43.698Z,1.70
2023-03-27T05:18:10.504Z,1.93
2023-03-27T05:20:37.309Z,2.20
2023-03-27T05:23:04.575Z,1.73
2023-03-27T05:25:33.152Z,2.23
2023-03-27T05:28:01.067Z,2.10
2023-03-27T05:30:29.006Z,1.93
2023-03-27T05:32:59.073Z,2.17
2023-03-27T05:35:28.407Z,2.43
2023-03-27T05:37:56.353Z,1.87
2023-03-27T05:40:26.837Z,1.67
2023-03-27T05:42:56.390Z,2.00
2023-03-27T05:45:24.189Z,2.00
2023-03-27T05:48:00.110Z,1.87
2023-03-27T05:50:34.661Z,2.40
2023-03-27T05:53:12.310Z,2.20
2023-03-27T05:55:40.908Z,3.37
2023-03-27T05:58:09.927Z,2.37
2023-03-27T06:00:38.657Z,2.30
2023-03-27T06:03:06.845Z,1.90
2023-03-27T06:05:33.853Z,2.40
2023-03-27T06:08:00.768Z,3.00
2023-03-27T06:10:29.988Z,2.30
2023-03-27T06:13:06.427Z,2.10
2023-03-27T06:15:34.287Z,2.20
2023-03-27T06:18:01.212Z,2.90
2023-03-27T06:20:28.060Z,2.50
2023-03-27T06:23:01.681Z,2.37
2023-03-27T06:25:34.685Z,1.83
2023-03-27T06:28:04.947Z,2.43
2023-03-27T06:30:31.708Z,2.20
2023-03-27T06:33:00.203Z,2.13
2023-03-27T06:35:31.769Z,2.40
2023-03-27T06:37:59.912Z,2.10
2023-03-27T06:40:29.183Z,2.20
2023-03-27T06:43:08.452Z,2.40
2023-03-27T06:45:49.295Z,2.37
2023-03-27T06:48:21.481Z,2.67
2023-03-27T06:50:52.675Z,2.40
2023-03-27T06:53:27.089Z,2.00
2023-03-27T06:55:56.246Z,2.47
2023-03-27T06:58:23.806Z,1.83
2023-03-27T07:00:51.138Z,2.27
2023-03-27T07:03:21.278Z,2.30
2023-03-27T07:05:49.065Z,2.13
2023-03-27T07:08:24.540Z,2.00
2023-03-27T07:11:10.772Z,2.50
2023-03-27T07:13:41.206Z,2.00
2023-03-27T07:16:11.903Z,2.00
2023-03-27T07:18:38.915Z,2.70
2023-03-27T07:21:08.082Z,2.00
2023-03-27T07:23:35.603Z,1.50
2023-03-27T07:26:02.415Z,2.37
2023-03-27T07:28:29.290Z,1.70
2023-03-27T07:30:56.511Z,1.97
2023-03-27T07:33:23.536Z,1.50
2023-03-27T07:35:50.653Z,1.97
2023-03-27T07:38:18.250Z,1.80
2023-03-27T07:40:46.505Z,1.50
2023-03-27T07:43:14.088Z,1.67
2023-03-27T07:45:42.080Z,1.93
2023-03-27T07:48:15.950Z,1.70
2023-03-27T07:50:43.705Z,2.57
2023-03-27T07:53:10.484Z,2.00
2023-03-27T07:55:59.070Z,1.90
2023-03-27T07:58:26.480Z,2.20
2023-03-27T08:00:53.474Z,2.30
2023-03-27T08:03:21.966Z,2.00
2023-03-27T08:05:57.870Z,1.90
2023-03-27T08:08:26.151Z,1.93
2023-03-27T08:11:01.007Z,1.83
2023-03-27T08:13:29.086Z,1.80
2023-03-27T08:16:28.933Z,2.30
2023-03-27T08:18:56.297Z,1.70
2023-03-27T08:21:23.785Z,1.80
2023-03-27T08:23:50.579Z,2.00
2023-03-27T08:26:18.115Z,1.80
2023-03-27T08:28:44.949Z,1.53
2023-03-27T08:31:15.646Z,1.80
2023-03-27T08:33:43.056Z,1.77
2023-03-27T08:36:11.849Z,2.00
2023-03-27T08:38:39.446Z,1.50
2023-03-27T08:41:06.875Z,2.03
2023-03-27T08:43:43.953Z,1.70
2023-03-27T08:46:22.497Z,1.87
2023-03-27T08:49:17.298Z,1.70
2023-03-27T08:51:56.748Z,2.30
2023-03-27T08:54:30.087Z,1.90
2023-03-27T08:56:57.899Z,2.03
2023-03-27T08:59:29.176Z,1.57
2023-03-27T09:02:39.959Z,2.22
2023-03-27T09:05:23.159Z,1.58
2023-03-27T09:08:13.434Z,1.77
2023-03-27T09:11:09.824Z,1.70
2023-03-27T09:13:51.570Z,1.50
2023-03-27T09:16:49.452Z,1.58
2023-03-27T09:19:40.696Z,1.83
2023-03-27T09:22:23.727Z,1.88
2023-03-27T09:24:56.332Z,1.77
2023-03-27T09:27:36.328Z,1.50
2023-03-27T09:30:11.945Z,2.20
2023-03-27T09:32:40.027Z,1.30
2023-03-27T09:35:07.411Z,2.00
2023-03-27T09:37:36.895Z,1.70
2023-03-27T09:40:07.839Z,1.70
2023-03-27T09:42:41.031Z,1.80
2023-03-27T09:45:12.201Z,2.08
2023-03-27T09:48:01.498Z,1.90
2023-03-27T09:50:44.335Z,2.10
2023-03-27T09:53:15.990Z,2.28
2023-03-27T09:55:58.299Z,2.03
2023-03-27T09:58:30.646Z,1.88
2023-03-27T10:01:19.860Z,1.88
2023-03-27T10:03:52.504Z,1.67
2023-03-27T10:06:36.214Z,1.70
2023-03-27T10:09:25.084Z,1.92
2023-03-27T10:12:08.141Z,1.83
2023-03-27T10:14:49.518Z,1.58
2023-03-27T10:17:36.759Z,2.17
2023-03-27T10:20:18.171Z,2.03
2023-03-27T10:22:59.850Z,1.65
2023-03-27T10:25:38.052Z,1.70
2023-03-27T10:28:30.680Z,1.67
2023-03-27T10:31:38.263Z,1.92
2023-03-27T10:34:27.709Z,1.63
2023-03-27T10:36:55.445Z,1.50
2023-03-27T10:39:36.157Z,1.63
2023-03-27T10:42:09.635Z,1.70
2023-03-27T10:44:38.355Z,1.60
2023-03-27T10:47:17.340Z,1.85
2023-03-27T10:49:52.600Z,1.63
2023-03-27T10:52:49.589Z,1.50
2023-03-27T10:55:51.673Z,1.43
2023-03-27T10:58:33.248Z,1.30
2023-03-27T11:01:18.782Z,1.73
2023-03-27T11:03:53.045Z,1.60
2023-03-27T11:06:27.213Z,1.30
2023-03-27T11:09:06.113Z,1.40
2023-03-27T11:11:55.712Z,1.40
2023-03-27T11:14:36.195Z,1.23
2023-03-27T11:17:08.307Z,1.60
2023-03-27T11:19:47.727Z,1.60
2023-03-27T11:22:22.610Z,1.63
2023-03-27T11:25:04.663Z,1.10
2023-03-27T11:27:39.494Z,1.20
2023-03-27T11:30:10.433Z,1.33
2023-03-27T11:33:12.346Z,1.43
2023-03-27T11:35:48.707Z,1.20
2023-03-27T11:38:25.795Z,1.00
2023-03-27T11:40:52.949Z,1.13
2023-03-27T11:43:22.226Z,1.50
2023-03-27T11:46:01.628Z,1.50
2023-03-27T11:49:06.937Z,1.47
2023-03-27T11:52:40.376Z,1.63
2023-03-27T11:55:43.024Z,1.40
2023-03-27T11:58:32.110Z,1.27
2023-03-27T12:01:34.468Z,1.20
2023-03-27T12:04:57.825Z,1.47
2023-03-27T12:07:38.034Z,1.57
2023-03-27T12:10:50.708Z,1.37
2023-03-27T12:14:02.268Z,0.90
2023-03-27T12:17:07.854Z,1.20
2023-03-27T12:20:09.325Z,1.20
2023-03-27T12:22:56.667Z,1.10
2023-03-27T12:26:04.385Z,1.23
2023-03-27T12:28:52.568Z,1.00
2023-03-27T12:31:39.419Z,1.00
2023-03-27T12:34:50.317Z,1.07
2023-03-27T12:37:34.743Z,1.33
2023-03-27T12:40:10.586Z,1.00
2023-03-27T12:42:53.875Z,1.03
2023-03-27T12:45:24.746Z,1.13
2023-03-27T12:48:10.465Z,1.00
2023-03-27T12:50:57.330Z,1.00
2023-03-27T12:53:27.114Z,0.80
2023-03-27T12:56:16.221Z,0.93
2023-03-27T12:58:49.264Z,0.80
2023-03-27T13:02:04.931Z,0.83
2023-03-27T13:05:26.916Z,1.10
2023-03-27T13:08:51.059Z,0.90
2023-03-27T13:11:31.353Z,1.20
2023-03-27T13:14:19.484Z,1.20
2023-03-27T13:17:11.058Z,1.40
2023-03-27T13:19:56.438Z,1.20
2023-03-27T13:23:01.974Z,1.40
2023-03-27T13:26:17.137Z,1.30
2023-03-27T13:28:54.212Z,1.40
2023-03-27T13:31:57.505Z,1.10
2023-03-27T13:34:27.019Z,0.90
2023-03-27T13:37:25.932Z,1.00
2023-03-27T13:40:28.651Z,0.80
2023-03-27T13:43:22.251Z,1.20
2023-03-27T13:45:59.959Z,1.17
2023-03-27T13:49:15.095Z,1.20
2023-03-27T13:52:07.393Z,1.10
2023-03-27T13:55:19.928Z,1.30
2023-03-27T13:58:41.632Z,1.10
2023-03-27T14:01:53.057Z,1.40
2023-03-27T14:04:30.874Z,0.97
2023-03-27T14:07:45.985Z,1.20
2023-03-27T14:10:54.732Z,1.10
2023-03-27T14:13:58.254Z,1.53
2023-03-27T14:17:00.477Z,1.07
2023-03-27T14:20:23.391Z,1.23
2023-03-27T14:23:04.265Z,1.67
2023-03-27T14:25:45.048Z,1.50
2023-03-27T14:28:51.518Z,1.30
2023-03-27T14:31:21.724Z,1.40
2023-03-27T14:34:09.688Z,1.40
2023-03-27T14:36:42.010Z,1.37
2023-03-27T14:39:25.045Z,1.87
2023-03-27T14:41:59.917Z,1.60
2023-03-27T14:44:31.315Z,1.50
2023-03-27T14:47:09.882Z,1.10
2023-03-27T14:49:46.016Z,1.43
2023-03-27T14:52:37.138Z,1.50
2023-03-27T14:55:06.211Z,1.73
2023-03-27T14:57:34.088Z,1.00
2023-03-27T15:00:06.611Z,1.10
2023-03-27T15:02:35.323Z,1.00
2023-03-27T15:05:16.358Z,1.23
2023-03-27T15:07:45.018Z,0.80
2023-03-27T15:10:32.601Z,1.00
2023-03-27T15:12:59.404Z,1.23
2023-03-27T15:15:38.858Z,1.47
2023-03-27T15:18:32.953Z,1.43
2023-03-27T15:21:16.751Z,1.53
2023-03-27T15:23:59.878Z,1.50
2023-03-27T15:26:35.372Z,1.40
2023-03-27T15:29:39.025Z,1.40
2023-03-27T15:32:18.064Z,1.20
2023-03-27T15:35:03.311Z,1.60
2023-03-27T15:37:31.832Z,1.70
2023-03-27T15:40:34.449Z,1.47
2023-03-27T15:43:13.238Z,1.10
2023-03-27T15:45:52.095Z,1.10
2023-03-27T15:48:23.378Z,1.10
2023-03-27T15:51:13.682Z,1.20
2023-03-27T15:53:50.124Z,1.27
2023-03-27T15:56:24.948Z,2.20
2023-03-27T15:59:06.184Z,1.70
2023-03-27T16:01:39.362Z,1.60
2023-03-27T16:04:15.838Z,2.30
2023-03-27T16:06:48.213Z,1.30
2023-03-27T16:09:28.822Z,1.40
2023-03-27T16:11:58.175Z,1.30
2023-03-27T16:14:52.871Z,1.40
2023-03-27T16:17:34.368Z,1.30
2023-03-27T16:20:23.389Z,1.10
2023-03-27T16:22:51.832Z,2.27
2023-03-27T16:25:19.623Z,1.20
2023-03-27T16:27:51.447Z,1.30
2023-03-27T16:30:29.864Z,1.17
2023-03-27T16:32:57.702Z,1.83
2023-03-27T16:35:29.795Z,1.53
2023-03-27T16:37:58.013Z,1.30
2023-03-27T16:40:25.498Z,1.43
2023-03-27T16:42:52.723Z,1.30
2023-03-27T16:45:19.932Z,1.37
2023-03-27T16:47:50.883Z,1.40
2023-03-27T16:50:26.848Z,1.40
2023-03-27T16:52:54.191Z,1.40
2023-03-27T16:55:22.221Z,1.30
2023-03-27T16:57:49.786Z,1.30
2023-03-27T17:00:18.833Z,1.57
2023-03-27T17:02:47.130Z,1.33
2023-03-27T17:05:15.248Z,1.67
2023-03-27T17:07:42.684Z,1.90
2023-03-27T17:10:10.583Z,1.50
2023-03-27T17:12:44.598Z,1.30
2023-03-27T17:15:12.104Z,1.77
2023-03-27T17:17:39.441Z,1.80
2023-03-27T17:20:08.046Z,1.47
2023-03-27T17:22:35.616Z,1.80
2023-03-27T17:25:06.072Z,1.87
2023-03-27T17:27:34.031Z,1.47
2023-03-27T17:30:05.856Z,1.53
2023-03-27T17:32:33.347Z,1.53
2023-03-27T17:35:00.572Z,1.60
2023-03-27T17:37:28.062Z,2.30
2023-03-27T17:39:55.637Z,1.30
2023-03-27T17:42:23.388Z,1.73
2023-03-27T17:44:50.705Z,1.60
2023-03-27T17:47:18.221Z,1.27
2023-03-27T17:49:45.494Z,1.40
2023-03-27T17:52:13.669Z,1.70
2023-03-27T17:54:43.625Z,1.30
2023-03-27T17:57:10.900Z,1.40
2023-03-27T17:59:38.774Z,1.83
2023-03-27T18:02:07.561Z,1.70
2023-03-27T18:04:35.229Z,1.90
2023-03-27T18:07:02.664Z,1.93
2023-03-27T18:09:30.756Z,3.73
2023-03-27T18:11:58.301Z,1.80
2023-03-27T18:14:25.468Z,1.70
2023-03-27T18:16:52.790Z,1.80
2023-03-27T18:19:20.270Z,1.47
2023-03-27T18:21:47.457Z,1.60
2023-03-27T18:24:14.746Z,1.50
2023-03-27T18:26:41.989Z,1.77
2023-03-27T18:29:10.850Z,1.50
2023-03-27T18:31:38.610Z,1.40
2023-03-27T18:34:06.994Z,1.17
2023-03-27T18:36:34.628Z,1.37
2023-03-27T18:39:02.169Z,1.40
2023-03-27T18:41:29.484Z,2.27
2023-03-27T18:43:56.894Z,2.20
2023-03-27T18:46:24.617Z,2.33
2023-03-27T18:51:33.139Z,3.70
2023-03-27T18:54:00.737Z,3.73
2023-03-27T18:56:28.138Z,3.37
2023-03-27T18:58:55.598Z,4.20
2023-03-27T19:01:23.068Z,4.67
2023-03-27T19:03:51.759Z,5.10
2023-03-27T19:06:19.670Z,5.87
2023-03-27T19:08:47.140Z,3.80
2023-03-27T19:11:13.957Z,2.63
2023-03-27T19:13:40.732Z,3.00
2023-03-27T19:16:14.453Z,3.00
2023-03-27T19:18:42.432Z,3.23
2023-03-27T19:21:09.280Z,3.00
2023-03-27T19:23:36.291Z,3.13
2023-03-27T19:26:10.256Z,2.87
2023-03-27T19:28:38.145Z,2.50
2023-03-27T19:31:08.831Z,2.40
2023-03-27T19:33:36.843Z,2.27
2023-03-27T19:36:04.855Z,2.40
2023-03-27T19:38:38.947Z,3.20
2023-03-27T19:41:11.018Z,2.00
2023-03-27T19:43:38.818Z,2.17
2023-03-27T19:46:15.617Z,2.20
2023-03-27T19:48:47.642Z,2.57
2023-03-27T19:51:15.761Z,2.17
2023-03-27T19:53:43.758Z,1.93
2023-03-27T19:56:11.700Z,2.33
2023-03-27T19:58:39.125Z,3.10
2023-03-27T20:01:07.291Z,4.10
2023-03-27T20:03:38.650Z,3.33
2023-03-27T20:06:14.151Z,3.17
2023-03-27T20:08:43.019Z,3.03
2023-03-27T20:11:10.611Z,1.97
2023-03-27T20:13:48.972Z,1.90
2023-03-27T20:16:23.769Z,2.03
2023-03-27T20:19:04.200Z,2.30
2023-03-27T20:21:42.000Z,2.10
2023-03-27T20:24:12.081Z,1.70
2023-03-27T20:26:41.759Z,1.60
2023-03-27T20:29:17.049Z,1.90
2023-03-27T20:31:44.792Z,1.80
2023-03-27T20:34:12.694Z,1.70
2023-03-27T20:36:40.372Z,1.57
2023-03-27T20:39:08.164Z,1.70
2023-03-27T20:41:39.305Z,2.10
2023-03-27T20:44:34.798Z,2.27
2023-03-27T20:47:10.891Z,2.23
2023-03-27T20:49:45.527Z,2.10
2023-03-27T20:52:18.729Z,2.80
2023-03-27T20:54:45.749Z,1.87
2023-03-27T20:57:12.545Z,1.77
2023-03-27T20:59:39.425Z,1.83
2023-03-27T21:02:07.054Z,2.37
2023-03-27T21:04:33.831Z,2.10
2023-03-27T21:07:00.553Z,2.13
2023-03-27T21:09:28.017Z,1.63
2023-03-27T21:11:57.933Z,2.53
2023-03-27T21:14:24.782Z,2.10
2023-03-27T21:16:51.560Z,2.00
2023-03-27T21:19:18.835Z,1.97
2023-03-27T21:21:45.974Z,1.53
2023-03-27T21:24:13.463Z,2.10
2023-03-27T21:26:41.680Z,2.20
2023-03-27T21:29:12.750Z,2.27
2023-03-27T21:31:40.986Z,2.17
2023-03-27T21:34:08.922Z,1.60
2023-03-27T21:36:43.435Z,2.17
2023-03-27T21:39:11.371Z,1.90
2023-03-27T21:41:39.085Z,1.97
2023-03-27T21:44:06.591Z,1.87
2023-03-27T21:46:34.196Z,1.73
2023-03-27T21:49:07.164Z,1.90
2023-03-27T21:51:34.690Z,2.20
2023-03-27T21:54:10.767Z,1.93
2023-03-27T21:56:38.479Z,1.83
2023-03-27T21:59:06.169Z,1.63
2023-03-27T22:01:34.042Z,1.90
2023-03-27T22:04:02.533Z,2.03
2023-03-27T22:06:30.621Z,1.87
2023-03-27T22:08:58.391Z,2.13
2023-03-27T22:11:26.206Z,2.07
2023-03-27T22:13:55.092Z,1.83
2023-03-27T22:16:22.918Z,2.80
2023-03-27T22:18:50.307Z,2.50
2023-03-27T22:21:22.353Z,3.73
2023-03-27T22:23:53.392Z,3.27
2023-03-27T22:26:26.608Z,3.17
2023-03-27T22:28:53.825Z,3.53
2023-03-27T22:31:22.078Z,3.30
2023-03-27T22:33:59.124Z,3.80
2023-03-27T22:36:27.280Z,3.33
2023-03-27T22:38:54.634Z,2.77
2023-03-27T22:41:22.158Z,2.73
2023-03-27T22:43:49.975Z,2.50
2023-03-27T22:46:26.618Z,2.40
2023-03-27T22:48:56.471Z,1.80
2023-03-27T22:51:25.438Z,2.10
2023-03-27T22:53:52.909Z,2.50
2023-03-27T22:56:20.785Z,1.80
2023-03-27T22:58:48.313Z,2.20
2023-03-27T23:01:15.873Z,2.20
2023-03-27T23:03:43.487Z,1.80
2023-03-27T23:06:23.119Z,2.20
2023-03-27T23:08:51.816Z,2.20
2023-03-27T23:11:20.161Z,2.20
2023-03-27T23:13:48.257Z,1.73
2023-03-27T23:16:17.037Z,1.97
2023-03-27T23:18:50.138Z,1.97
2023-03-27T23:21:20.970Z,2.00
2023-03-27T23:23:56.576Z,2.30
2023-03-27T23:26:24.064Z,1.90
2023-03-27T23:29:00.772Z,2.23
2023-03-27T23:31:28.279Z,1.60
2023-03-27T23:34:03.086Z,2.10
2023-03-27T23:36:46.366Z,1.90
2023-03-27T23:39:31.521Z,2.00
2023-03-27T23:41:59.019Z,2.00
2023-03-27T23:44:32.377Z,2.40
2023-03-27T23:46:59.630Z,1.90
2023-03-27T23:49:51.290Z,2.30
2023-03-27T23:52:37.686Z,2.43
2023-03-27T23:55:12.139Z,3.13
2023-03-27T23:57:44.738Z,2.20
